Time;durP1;ratioP1;P1;durP2;ratioP2;P2;SDS_P1;SDS_P2;PMS_P1;PMS_P2;Temp;Humidity;BMP_temperature;BMP_pressure;BME280_temperature;BME280_humidity;BME280_pressure;Samples;Min_cycle;Max_cycle;Signal;HPM_P1;HPM_P2
2021/07/07 00:01:35;;;;;;;0.90;0.40;;;21.50;36.10;;;;;;4388569;32;20077;-36
2021/07/07 00:04:01;;;;;;;1.08;0.40;;;21.40;36.20;;;;;;4390092;32;20069;-36
2021/07/07 00:06:28;;;;;;;0.55;0.37;;;21.40;36.30;;;;;;4388247;32;20049;-37
2021/07/07 00:08:54;;;;;;;0.30;0.25;;;21.40;36.40;;;;;;4388369;32;20164;-35
2021/07/07 00:11:20;;;;;;;0.70;0.43;;;21.30;36.60;;;;;;4388383;32;20065;-35
2021/07/07 00:13:47;;;;;;;0.40;0.30;;;21.20;36.60;;;;;;4389955;32;20085;-35
2021/07/07 00:16:13;;;;;;;0.30;0.15;;;21.20;36.70;;;;;;4390237;32;20560;-37
2021/07/07 00:18:40;;;;;;;7.53;0.40;;;21.20;36.80;;;;;;4390151;32;20161;-35
2021/07/07 00:21:08;;;;;;;2.65;0.40;;;21.20;36.70;;;;;;4376192;32;20159;-37
2021/07/07 00:23:35;;;;;;;0.30;0.30;;;21.10;36.80;;;;;;4390175;32;20057;-36
2021/07/07 00:26:01;;;;;;;1.15;0.40;;;21.10;36.90;;;;;;4388492;32;20518;-36
2021/07/07 00:28:27;;;;;;;3.78;0.50;;;21.10;36.90;;;;;;4389481;32;20066;-36
2021/07/07 00:30:54;;;;;;;1.50;0.47;;;21.00;37.00;;;;;;4388596;32;20158;-36
2021/07/07 00:33:21;;;;;;;0.30;0.28;;;21.00;37.00;;;;;;4389471;32;20129;-37
2021/07/07 00:35:47;;;;;;;0.50;0.20;;;21.00;37.00;;;;;;4389970;32;20130;-37
2021/07/07 00:38:14;;;;;;;2.05;0.30;;;21.00;37.00;;;;;;4357446;32;20086;-35
2021/07/07 00:40:41;;;;;;;0.62;0.30;;;21.00;37.00;;;;;;4357097;32;20515;-37
2021/07/07 00:43:08;;;;;;;0.75;0.20;;;21.00;37.10;;;;;;4356885;32;21097;-36
2021/07/07 00:45:34;;;;;;;0.30;0.20;;;20.90;37.20;;;;;;4344643;32;20523;-36
2021/07/07 00:48:01;;;;;;;0.93;0.30;;;20.90;37.30;;;;;;4357147;32;20526;-36
2021/07/07 00:50:28;;;;;;;0.43;0.30;;;20.90;37.40;;;;;;4332534;32;20145;-36
2021/07/07 00:52:57;;;;;;;1.85;0.57;;;20.90;37.30;;;;;;4344659;32;20153;-36
2021/07/07 00:55:24;;;;;;;0.62;0.30;;;20.90;37.30;;;;;;4327928;33;20082;-36
2021/07/07 00:57:51;;;;;;;0.75;0.30;;;20.90;37.40;;;;;;4328360;33;20063;-37
2021/07/07 01:00:22;;;;;;;0.45;0.30;;;20.90;37.40;;;;;;4327851;33;20071;-37
2021/07/07 01:02:52;;;;;;;1.12;0.20;;;20.80;37.50;;;;;;4315894;33;20062;-37
2021/07/07 01:05:19;;;;;;;11.57;0.85;;;20.80;37.50;;;;;;4327109;33;20074;-36
2021/07/07 01:07:45;;;;;;;0.28;0.28;;;20.80;37.40;;;;;;4326988;33;20162;-36
2021/07/07 01:10:14;;;;;;;0.10;0.10;;;20.90;37.40;;;;;;4355148;32;20161;-36
2021/07/07 01:12:41;;;;;;;0.75;0.30;;;20.90;37.40;;;;;;4371453;32;20070;-37
2021/07/07 01:15:18;;;;;;;1.10;0.40;;;20.90;37.40;;;;;;4359263;32;20144;-36
2021/07/07 01:17:45;;;;;;;1.95;0.50;;;21.00;37.40;;;;;;4359437;32;20105;-36
2021/07/07 01:20:14;;;;;;;1.75;0.47;;;21.00;37.20;;;;;;4356053;32;20189;-36
2021/07/07 01:22:41;;;;;;;0.68;0.37;;;21.10;37.30;;;;;;4356384;32;20179;-36
2021/07/07 01:25:09;;;;;;;0.25;0.25;;;21.10;37.10;;;;;;4356282;32;20067;-36
2021/07/07 01:27:36;;;;;;;1.20;0.40;;;21.10;37.00;;;;;;4311737;33;20548;-36
2021/07/07 01:30:08;;;;;;;3.85;0.30;;;21.30;37.20;;;;;;4312007;33;20535;-36
2021/07/07 01:32:34;;;;;;;0.20;0.20;;;21.30;36.80;;;;;;4311769;33;20067;-36
2021/07/07 01:35:03;;;;;;;4.20;0.30;;;21.40;36.70;;;;;;4312061;33;20064;-36
2021/07/07 01:37:29;;;;;;;0.95;0.30;;;21.40;36.70;;;;;;4311966;33;20153;-36
2021/07/07 01:39:56;;;;;;;0.28;0.25;;;21.30;36.50;;;;;;4311939;33;20548;-36
2021/07/07 01:42:22;;;;;;;0.30;0.20;;;21.30;36.60;;;;;;4300116;33;20064;-35
2021/07/07 01:44:49;;;;;;;0.30;0.20;;;21.40;36.70;;;;;;4312192;33;20056;-36
2021/07/07 01:47:15;;;;;;;1.12;0.30;;;21.50;36.60;;;;;;4311884;33;20080;-36
2021/07/07 01:49:42;;;;;;;0.55;0.55;;;21.60;36.30;;;;;;4311751;33;20174;-36
2021/07/07 01:52:08;;;;;;;0.35;0.22;;;21.70;36.10;;;;;;4337519;33;20083;-36
2021/07/07 01:54:35;;;;;;;0.30;0.22;;;21.90;35.80;;;;;;4313669;33;20067;-36
2021/07/07 01:57:01;;;;;;;1.10;0.50;;;22.00;35.60;;;;;;4326594;33;20063;-36
2021/07/07 01:59:28;;;;;;;0.37;0.30;;;22.10;35.30;;;;;;4349124;32;20074;-36
2021/07/07 02:01:54;;;;;;;0.88;0.40;;;22.20;35.20;;;;;;4355891;32;20596;-36
2021/07/07 02:04:22;;;;;;;0.68;0.40;;;22.30;35.00;;;;;;4355855;32;20083;-37
2021/07/07 02:06:49;;;;;;;0.93;0.50;;;22.40;34.80;;;;;;4340516;33;20157;-36
2021/07/07 02:09:19;;;;;;;0.70;0.40;;;22.60;34.60;;;;;;4328740;33;20098;-36
2021/07/07 02:11:48;;;;;;;4.12;0.50;;;22.60;34.40;;;;;;4316711;33;20062;-36
2021/07/07 02:14:15;;;;;;;0.25;0.20;;;22.60;34.40;;;;;;4316460;33;20701;-36
2021/07/07 02:16:43;;;;;;;0.80;0.47;;;22.70;34.30;;;;;;4328804;33;20158;-36
2021/07/07 02:19:09;;;;;;;0.77;0.40;;;22.80;34.20;;;;;;4341162;33;20211;-37
2021/07/07 02:21:36;;;;;;;2.85;0.55;;;22.80;34.10;;;;;;4340900;33;20508;-36
2021/07/07 02:24:03;;;;;;;1.33;0.65;;;22.90;34.00;;;;;;4341104;33;20078;-36
2021/07/07 02:26:30;;;;;;;0.20;0.10;;;23.00;34.20;;;;;;4328226;33;20557;-36
2021/07/07 02:28:56;;;;;;;1.08;0.60;;;23.10;33.90;;;;;;4340471;33;20117;-36
2021/07/07 02:31:22;;;;;;;0.80;0.30;;;23.30;33.60;;;;;;4331854;32;20090;-37
2021/07/07 02:33:49;;;;;;;0.98;0.68;;;23.40;33.40;;;;;;4355737;32;20086;-36
2021/07/07 02:36:16;;;;;;;0.82;0.40;;;23.50;33.20;;;;;;4350258;32;20046;-37
2021/07/07 02:38:42;;;;;;;0.62;0.40;;;23.50;33.20;;;;;;4400886;32;20307;-36
2021/07/07 02:41:09;;;;;;;0.60;0.20;;;23.60;33.10;;;;;;4376714;32;20164;-35
2021/07/07 02:43:35;;;;;;;1.42;0.55;;;23.60;33.40;;;;;;4403248;32;20084;-37
2021/07/07 02:46:03;;;;;;;0.28;0.20;;;23.70;33.40;;;;;;4402824;32;20087;-37
2021/07/07 02:48:29;;;;;;;0.62;0.50;;;23.80;33.40;;;;;;4357413;32;20062;-37
2021/07/07 02:50:55;;;;;;;0.43;0.22;;;23.90;33.10;;;;;;4370289;32;20062;-36
2021/07/07 02:53:22;;;;;;;1.05;0.30;;;24.00;33.10;;;;;;4358147;32;20065;-37
2021/07/07 02:55:48;;;;;;;0.25;0.20;;;24.00;33.10;;;;;;4370560;32;20066;-37
2021/07/07 02:58:15;;;;;;;0.40;0.30;;;24.20;33.20;;;;;;4362314;32;20580;-38
2021/07/07 03:00:44;;;;;;;1.17;0.57;;;24.30;32.70;;;;;;4355721;32;20132;-37
2021/07/07 03:03:22;;;;;;;1.95;0.43;;;24.40;32.80;;;;;;4355166;32;20582;-37
2021/07/07 03:05:54;;;;;;;0.50;0.40;;;24.40;32.70;;;;;;4343032;32;20078;-37
2021/07/07 03:08:25;;;;;;;2.40;0.30;;;24.40;32.80;;;;;;4355341;32;20055;-38
2021/07/07 03:10:52;;;;;;;0.93;0.40;;;24.50;32.80;;;;;;4343389;32;20077;-37
2021/07/07 03:13:20;;;;;;;1.75;0.60;;;24.60;32.80;;;;;;4354935;32;20055;-37
2021/07/07 03:15:47;;;;;;;0.37;0.37;;;24.60;32.70;;;;;;4342907;32;20078;-39
2021/07/07 03:18:13;;;;;;;0.80;0.40;;;24.70;32.80;;;;;;4342695;32;20086;-36
2021/07/07 03:20:43;;;;;;;0.88;0.30;;;24.80;32.50;;;;;;4360586;32;20069;-37
2021/07/07 03:23:10;;;;;;;1.50;0.50;;;24.90;32.40;;;;;;4388057;32;20082;-37
2021/07/07 03:25:37;;;;;;;0.65;0.22;;;25.00;32.50;;;;;;4361719;32;20082;-37
2021/07/07 03:28:04;;;;;;;0.30;0.30;;;25.20;32.50;;;;;;4387283;32;20472;-37
2021/07/07 03:30:31;;;;;;;0.95;0.85;;;25.30;32.40;;;;;;4373808;32;20076;-37
2021/07/07 03:32:59;;;;;;;3.83;0.73;;;25.40;32.20;;;;;;4373567;32;20153;-36
2021/07/07 03:35:26;;;;;;;0.60;0.50;;;25.50;32.20;;;;;;4387514;32;20061;-38
2021/07/07 03:37:52;;;;;;;0.95;0.30;;;25.60;32.00;;;;;;4328228;33;20093;-37
2021/07/07 03:40:19;;;;;;;3.08;0.40;;;25.80;31.80;;;;;;4327647;33;20093;-37
2021/07/07 03:42:46;;;;;;;2.60;0.43;;;25.90;31.60;;;;;;4340081;33;20090;-37
2021/07/07 03:45:16;;;;;;;0.90;0.30;;;25.90;30.90;;;;;;4328060;33;20500;-36
2021/07/07 03:47:43;;;;;;;3.42;0.30;;;25.90;30.50;;;;;;4342090;32;20073;-37
2021/07/07 03:50:09;;;;;;;0.80;0.40;;;25.90;30.60;;;;;;4342925;33;20578;-37
2021/07/07 03:52:36;;;;;;;0.28;0.20;;;26.00;30.90;;;;;;4318044;33;20167;-36
2021/07/07 03:55:09;;;;;;;0.93;0.28;;;26.00;30.20;;;;;;4342557;33;20095;-35
2021/07/07 03:57:35;;;;;;;1.15;0.50;;;26.10;30.30;;;;;;4347040;32;20082;-36
2021/07/07 04:00:07;;;;;;;0.95;0.40;;;26.20;30.00;;;;;;4370000;32;20523;-36
2021/07/07 04:02:33;;;;;;;0.57;0.40;;;26.30;29.90;;;;;;4369560;32;20105;-36
2021/07/07 04:05:00;;;;;;;0.32;0.25;;;26.30;29.60;;;;;;4369964;32;20074;-35
2021/07/07 04:07:27;;;;;;;8.75;0.20;;;26.30;29.90;;;;;;4357541;32;20077;-37
2021/07/07 04:09:53;;;;;;;3.60;0.50;;;26.50;30.00;;;;;;4357426;32;20196;-36
2021/07/07 04:12:20;;;;;;;2.55;0.55;;;26.50;30.40;;;;;;4357142;32;20647;-37
2021/07/07 04:14:46;;;;;;;0.80;0.40;;;26.50;29.70;;;;;;4353095;32;20097;-38
2021/07/07 04:17:12;;;;;;;2.35;0.50;;;26.50;29.50;;;;;;4391805;32;20130;-37
2021/07/07 04:19:39;;;;;;;1.27;0.60;;;26.60;29.30;;;;;;4404981;32;20065;-37
2021/07/07 04:22:06;;;;;;;1.60;0.80;;;26.80;29.10;;;;;;4391052;32;20076;-37
2021/07/07 04:24:32;;;;;;;3.03;0.60;;;26.90;29.20;;;;;;4369663;32;20467;-36
2021/07/07 04:26:58;;;;;;;2.95;0.30;;;27.10;28.80;;;;;;4344960;32;20175;-38
2021/07/07 04:29:25;;;;;;;1.90;0.60;;;27.10;28.80;;;;;;4357410;32;20081;-36
2021/07/07 04:31:56;;;;;;;3.03;0.52;;;27.10;28.20;;;;;;4356889;32;20098;-37
2021/07/07 04:34:26;;;;;;;0.52;0.40;;;27.10;28.20;;;;;;4356894;32;20078;-37
2021/07/07 04:36:53;;;;;;;3.35;0.50;;;27.00;28.20;;;;;;4357086;32;20067;-36
2021/07/07 04:39:19;;;;;;;1.15;0.60;;;27.10;28.20;;;;;;4357333;32;20633;-36
2021/07/07 04:41:46;;;;;;;0.45;0.40;;;27.10;28.20;;;;;;4356895;32;20122;-37
2021/07/07 04:44:12;;;;;;;2.30;0.45;;;27.10;28.20;;;;;;4341293;33;20528;-37
2021/07/07 04:46:38;;;;;;;2.45;0.60;;;27.30;27.90;;;;;;4341749;33;20066;-36
2021/07/07 04:49:05;;;;;;;1.00;0.60;;;27.40;27.60;;;;;;4342133;33;20075;-37
2021/07/07 04:51:31;;;;;;;1.67;0.50;;;27.30;27.10;;;;;;4329903;33;20135;-36
2021/07/07 04:53:58;;;;;;;0.45;0.30;;;27.30;27.30;;;;;;4342056;33;20085;-37
2021/07/07 04:56:24;;;;;;;1.15;0.45;;;27.40;27.40;;;;;;4329936;33;20169;-36
2021/07/07 04:58:51;;;;;;;3.47;0.55;;;27.60;27.50;;;;;;4352633;32;20550;-36
2021/07/07 05:01:17;;;;;;;1.20;0.50;;;27.70;27.20;;;;;;4359666;32;20176;-37
2021/07/07 05:03:44;;;;;;;1.30;0.40;;;27.70;27.00;;;;;;4371626;32;20058;-36
2021/07/07 05:06:10;;;;;;;0.75;0.37;;;27.90;27.20;;;;;;4358904;32;20121;-36
2021/07/07 05:08:37;;;;;;;2.75;0.60;;;28.00;26.90;;;;;;4371106;32;20086;-38
2021/07/07 05:11:03;;;;;;;2.87;0.80;;;28.10;26.60;;;;;;4371200;32;20164;-36
2021/07/07 05:13:31;;;;;;;2.15;0.57;;;28.10;26.00;;;;;;4359288;32;20147;-37
2021/07/07 05:15:58;;;;;;;1.50;0.60;;;28.00;26.10;;;;;;4372427;32;20141;-36
2021/07/07 05:18:25;;;;;;;0.45;0.40;;;28.00;26.20;;;;;;4388762;32;20092;-37
2021/07/07 05:20:51;;;;;;;4.60;0.50;;;28.10;26.50;;;;;;4389196;32;20182;-37
2021/07/07 05:23:18;;;;;;;2.97;0.82;;;28.10;26.30;;;;;;4375074;32;20598;-38
2021/07/07 05:25:45;;;;;;;0.90;0.50;;;28.10;25.70;;;;;;4375110;32;20057;-36
2021/07/07 05:28:12;;;;;;;3.80;0.65;;;28.00;25.80;;;;;;4388448;32;20082;-36
2021/07/07 05:30:39;;;;;;;0.70;0.40;;;28.00;25.80;;;;;;4388535;32;20080;-36
2021/07/07 05:33:07;;;;;;;1.08;0.32;;;27.90;26.10;;;;;;4375051;32;20061;-35
2021/07/07 05:35:34;;;;;;;6.43;0.90;;;28.00;26.00;;;;;;4388823;32;20527;-36
2021/07/07 05:38:00;;;;;;;4.40;0.77;;;28.10;25.40;;;;;;4388499;32;20062;-37
2021/07/07 05:40:27;;;;;;;2.65;0.68;;;28.00;25.30;;;;;;4388403;32;20156;-37
2021/07/07 05:42:54;;;;;;;5.07;0.90;;;28.20;25.40;;;;;;4388409;32;20081;-37
2021/07/07 05:45:23;;;;;;;3.10;0.68;;;28.00;24.90;;;;;;4388623;32;20080;-37
2021/07/07 05:47:49;;;;;;;1.15;0.50;;;28.00;24.90;;;;;;4374506;32;20066;-36
2021/07/07 05:50:17;;;;;;;2.08;0.47;;;28.10;25.10;;;;;;4387168;32;20077;-37
2021/07/07 05:52:43;;;;;;;4.22;1.00;;;28.30;24.90;;;;;;4388603;32;20070;-37
2021/07/07 05:55:11;;;;;;;1.87;0.60;;;28.60;25.00;;;;;;4388236;32;20065;-37
2021/07/07 05:57:37;;;;;;;2.28;0.80;;;28.80;24.80;;;;;;4388027;32;20096;-36
2021/07/07 06:00:29;;;;;;;1.83;0.68;;;28.80;24.10;;;;;;4388249;32;20650;-36
2021/07/07 06:02:56;;;;;;;1.30;0.40;;;28.70;23.90;;;;;;4387818;32;20624;-37
2021/07/07 06:05:23;;;;;;;5.78;0.60;;;28.50;24.40;;;;;;4387880;32;20072;-37
2021/07/07 06:07:50;;;;;;;2.37;0.70;;;28.50;24.20;;;;;;4386182;32;20566;-36
2021/07/07 06:10:18;;;;;;;1.08;0.50;;;28.60;24.20;;;;;;4387900;32;20057;-37
2021/07/07 06:12:45;;;;;;;2.45;0.60;;;28.50;23.90;;;;;;4388084;32;20145;-37
2021/07/07 06:15:14;;;;;;;1.67;0.62;;;28.60;23.80;;;;;;4388082;32;20145;-36
2021/07/07 06:17:41;;;;;;;1.62;0.60;;;28.70;23.70;;;;;;4388005;32;20155;-37
2021/07/07 06:20:09;;;;;;;0.93;0.50;;;28.70;23.70;;;;;;4387815;32;20054;-35
2021/07/07 06:22:37;;;;;;;1.95;0.90;;;28.70;24.00;;;;;;4388263;32;20474;-36
2021/07/07 06:25:05;;;;;;;5.60;0.80;;;28.60;24.10;;;;;;4388049;32;20522;-37
2021/07/07 06:27:32;;;;;;;1.30;0.32;;;28.50;24.90;;;;;;4387962;32;20065;-37
2021/07/07 06:29:58;;;;;;;1.12;0.25;;;28.70;25.20;;;;;;4387806;32;20606;-37
2021/07/07 06:32:25;;;;;;;1.25;0.50;;;29.00;25.50;;;;;;4388114;32;20525;-38
2021/07/07 06:34:51;;;;;;;1.05;0.40;;;29.20;25.80;;;;;;4387966;32;20169;-38
2021/07/07 06:37:17;;;;;;;1.48;0.40;;;29.40;25.80;;;;;;4386334;32;20470;-36
2021/07/07 06:39:44;;;;;;;1.23;0.60;;;29.40;25.40;;;;;;4386458;32;20153;-37
2021/07/07 06:42:11;;;;;;;3.80;0.50;;;29.30;25.40;;;;;;4388184;32;20072;-38
2021/07/07 06:44:37;;;;;;;1.70;0.70;;;29.20;26.00;;;;;;4386208;32;20557;-38
2021/07/07 06:47:04;;;;;;;1.12;0.50;;;29.00;26.10;;;;;;4387867;32;20536;-38
2021/07/07 06:49:30;;;;;;;3.78;0.60;;;29.00;26.30;;;;;;4386490;32;20077;-38
2021/07/07 06:51:57;;;;;;;1.90;0.70;;;29.00;26.40;;;;;;4387559;32;20081;-37
2021/07/07 06:54:23;;;;;;;0.62;0.40;;;28.90;26.30;;;;;;4387704;32;20569;-36
2021/07/07 06:56:50;;;;;;;0.50;0.40;;;28.90;26.50;;;;;;4387653;32;20063;-36
2021/07/07 06:59:16;;;;;;;1.17;0.57;;;29.00;26.60;;;;;;4387790;32;20514;-37
2021/07/07 07:01:43;;;;;;;3.20;0.73;;;29.00;26.60;;;;;;4388088;32;20141;-36
2021/07/07 07:04:09;;;;;;;1.55;0.30;;;29.10;26.90;;;;;;4388083;32;20141;-37
2021/07/07 07:06:36;;;;;;;5.07;0.40;;;29.30;26.70;;;;;;4386259;32;20189;-37
2021/07/07 07:09:04;;;;;;;2.75;0.80;;;29.50;26.60;;;;;;4387425;32;20065;-37
2021/07/07 07:11:30;;;;;;;2.62;0.45;;;29.50;26.40;;;;;;4386124;32;20085;-37
2021/07/07 07:13:57;;;;;;;0.60;0.32;;;29.60;26.50;;;;;;4387722;32;20181;-37
2021/07/07 07:16:24;;;;;;;2.55;0.50;;;29.70;26.60;;;;;;4388103;32;20107;-40
2021/07/07 07:18:51;;;;;;;0.90;0.40;;;29.80;26.40;;;;;;4388030;32;20134;-37
2021/07/07 07:21:17;;;;;;;0.57;0.30;;;30.00;26.50;;;;;;4386616;32;20078;-37
2021/07/07 07:23:44;;;;;;;0.93;0.50;;;30.20;26.40;;;;;;4390651;32;20065;-36
2021/07/07 07:26:10;;;;;;;4.97;0.47;;;30.10;26.10;;;;;;4389291;32;20087;-38
2021/07/07 07:28:37;;;;;;;1.00;0.25;;;30.00;26.40;;;;;;4390361;32;20597;-37
2021/07/07 07:31:04;;;;;;;2.45;0.50;;;30.00;26.50;;;;;;4390392;32;20157;-37
2021/07/07 07:33:31;;;;;;;0.70;0.40;;;30.00;26.60;;;;;;4388848;32;20072;-37
2021/07/07 07:35:57;;;;;;;1.15;0.50;;;30.10;26.50;;;;;;4357817;32;20521;-36
2021/07/07 07:38:32;;;;;;;2.05;0.50;;;30.30;26.60;;;;;;4333372;32;20067;-37
2021/07/07 07:40:59;;;;;;;3.42;0.47;;;30.30;26.20;;;;;;4357948;32;20093;-37
2021/07/07 07:43:25;;;;;;;1.45;0.50;;;30.30;26.60;;;;;;4345394;32;20155;-37
2021/07/07 07:45:58;;;;;;;1.37;0.37;;;30.30;26.80;;;;;;4345586;32;20151;-37
2021/07/07 07:48:25;;;;;;;1.30;0.55;;;30.20;26.80;;;;;;4357606;32;20094;-36
2021/07/07 07:50:51;;;;;;;1.92;0.65;;;30.20;27.10;;;;;;4345136;32;20152;-37
2021/07/07 07:53:18;;;;;;;4.85;0.57;;;30.50;27.10;;;;;;4357743;32;20184;-36
2021/07/07 07:55:44;;;;;;;2.85;0.30;;;30.50;26.80;;;;;;4345149;32;20595;-37
2021/07/07 07:58:17;;;;;;;1.17;0.40;;;30.50;26.80;;;;;;4342725;33;20136;-37
2021/07/07 08:00:45;;;;;;;2.62;0.75;;;30.60;26.90;;;;;;4342796;33;20603;-35
2021/07/07 08:03:12;;;;;;;5.22;0.60;;;30.50;26.90;;;;;;4342832;33;20585;-37
2021/07/07 08:05:40;;;;;;;3.33;0.70;;;30.60;26.80;;;;;;4342948;33;20558;-37
2021/07/07 08:08:07;;;;;;;1.48;0.50;;;30.50;26.50;;;;;;4330628;33;20176;-38
2021/07/07 08:10:33;;;;;;;2.05;0.45;;;30.50;26.50;;;;;;4342294;33;20576;-37
2021/07/07 08:13:00;;;;;;;0.93;0.50;;;30.50;26.40;;;;;;4358098;32;20525;-37
2021/07/07 08:15:27;;;;;;;1.48;0.50;;;30.40;26.40;;;;;;4389471;32;20573;-37
2021/07/07 08:17:55;;;;;;;1.60;0.40;;;30.30;26.40;;;;;;4389526;32;20482;-38
2021/07/07 08:20:22;;;;;;;2.92;0.60;;;30.30;26.60;;;;;;4375858;32;20112;-36
2021/07/07 08:22:49;;;;;;;1.55;0.60;;;30.40;26.60;;;;;;4389891;32;20487;-36
2021/07/07 08:25:16;;;;;;;6.60;0.80;;;30.40;26.50;;;;;;4389681;32;20098;-36
2021/07/07 08:27:43;;;;;;;1.70;0.40;;;30.50;26.90;;;;;;4375625;32;20134;-37
2021/07/07 08:30:11;;;;;;;1.50;0.50;;;30.60;26.70;;;;;;4389503;32;20562;-38
2021/07/07 08:32:38;;;;;;;4.43;0.50;;;30.70;26.40;;;;;;4359573;32;20081;-36
2021/07/07 08:35:05;;;;;;;0.57;0.37;;;30.70;26.10;;;;;;4372226;32;20100;-37
2021/07/07 08:37:32;;;;;;;8.40;1.00;;;30.70;26.50;;;;;;4372008;32;20081;-36
2021/07/07 08:39:58;;;;;;;1.40;0.40;;;30.90;26.40;;;;;;4372077;32;20534;-36
2021/07/07 08:42:25;;;;;;;3.28;0.90;;;30.80;26.50;;;;;;4372027;32;20178;-38
2021/07/07 08:44:52;;;;;;;1.87;0.47;;;30.90;26.70;;;;;;4372130;32;20098;-37
2021/07/07 08:47:19;;;;;;;1.27;0.60;;;31.00;26.60;;;;;;4371682;32;20107;-35
2021/07/07 08:49:45;;;;;;;3.28;0.70;;;31.20;26.50;;;;;;4371654;32;20608;-39
2021/07/07 08:52:11;;;;;;;2.08;1.08;;;31.30;26.50;;;;;;4371813;32;20078;-37
2021/07/07 08:54:38;;;;;;;1.52;0.40;;;31.40;26.00;;;;;;4326703;33;20070;-37
2021/07/07 08:57:08;;;;;;;5.43;0.73;;;31.50;26.10;;;;;;4328865;32;20079;-38
2021/07/07 08:59:35;;;;;;;5.25;0.68;;;31.40;26.30;;;;;;4356441;32;20076;-37
2021/07/07 09:02:07;;;;;;;2.50;0.98;;;31.40;26.50;;;;;;4356586;32;20133;-37
2021/07/07 09:04:35;;;;;;;3.12;0.65;;;31.30;26.30;;;;;;4357176;32;20081;-38
2021/07/07 09:07:23;;;;;;;4.22;0.50;;;31.20;26.20;;;;;;4371576;32;20078;-36
2021/07/07 09:09:53;;;;;;;1.35;0.60;;;31.30;26.40;;;;;;4371229;32;20077;-37
2021/07/07 09:12:25;;;;;;;1.40;0.40;;;31.20;26.30;;;;;;4371293;32;20566;-36
2021/07/07 09:15:01;;;;;;;3.33;0.40;;;31.30;26.20;;;;;;4356113;32;20078;-37
2021/07/07 09:17:27;;;;;;;5.28;0.50;;;31.50;26.00;;;;;;4356482;32;20063;-37
2021/07/07 09:19:54;;;;;;;4.10;0.60;;;31.70;26.10;;;;;;4343712;32;20127;-38
2021/07/07 09:22:24;;;;;;;0.55;0.40;;;32.00;25.90;;;;;;4344110;32;20499;-40
2021/07/07 09:25:00;;;;;;;0.90;0.50;;;32.30;25.70;;;;;;4359556;32;20077;-36
2021/07/07 09:27:35;;;;;;;4.45;0.50;;;32.30;25.40;;;;;;4373172;32;20078;-36
2021/07/07 09:30:11;;;;;;;2.30;0.52;;;32.20;25.40;;;;;;4372159;32;20073;-37
2021/07/07 09:32:51;;;;;;;1.12;0.50;;;32.30;26.00;;;;;;4371888;32;20094;-36
2021/07/07 09:35:19;;;;;;;0.68;0.37;;;32.40;25.40;;;;;;4372502;32;20155;-36
2021/07/07 09:37:51;;;;;;;0.35;0.17;;;32.30;25.00;;;;;;4373900;32;20078;-37
2021/07/07 09:40:18;;;;;;;0.73;0.47;;;32.30;25.50;;;;;;4371885;32;20550;-37
2021/07/07 09:42:46;;;;;;;0.82;0.30;;;32.10;25.40;;;;;;4373647;32;20451;-37
2021/07/07 09:45:19;;;;;;;1.50;0.28;;;32.10;25.60;;;;;;4384216;32;20066;-38
2021/07/07 09:47:47;;;;;;;1.00;0.50;;;32.20;25.60;;;;;;4373719;32;20141;-39
2021/07/07 09:50:15;;;;;;;3.87;0.50;;;32.40;25.80;;;;;;4371928;32;20065;-38
2021/07/07 09:52:41;;;;;;;5.82;0.60;;;32.60;25.20;;;;;;4373396;32;20208;-37
2021/07/07 09:55:09;;;;;;;1.35;0.60;;;32.80;25.20;;;;;;4373238;32;20058;-39
2021/07/07 09:57:48;;;;;;;1.40;0.40;;;32.80;25.20;;;;;;4372958;32;20097;-38
2021/07/07 10:00:21;;;;;;;1.85;0.40;;;32.90;25.20;;;;;;4360680;32;20066;-36
2021/07/07 10:02:49;;;;;;;2.80;0.40;;;33.00;25.30;;;;;;4372317;32;20080;-36
2021/07/07 10:05:17;;;;;;;1.15;0.50;;;33.00;24.70;;;;;;4371963;32;20435;-37
2021/07/07 10:07:44;;;;;;;2.60;0.60;;;33.00;24.70;;;;;;4373096;32;20080;-38
2021/07/07 10:10:13;;;;;;;1.85;0.60;;;33.10;24.80;;;;;;4371687;32;20120;-37
2021/07/07 10:12:44;;;;;;;1.58;1.00;;;33.10;24.80;;;;;;4375073;32;20058;-38
2021/07/07 10:15:13;;;;;;;1.85;0.73;;;33.00;24.70;;;;;;4403586;32;20589;-37
2021/07/07 10:17:41;;;;;;;0.98;0.60;;;32.90;24.70;;;;;;4389450;32;20093;-37
2021/07/07 10:20:10;;;;;;;2.95;1.08;;;32.90;24.70;;;;;;4403304;32;20502;-37
2021/07/07 10:22:37;;;;;;;1.30;0.47;;;33.00;24.60;;;;;;4403148;32;20054;-37
2021/07/07 10:25:11;;;;;;;1.05;0.40;;;32.90;24.40;;;;;;4402978;32;20438;-37
2021/07/07 10:27:38;;;;;;;;;;;32.90;24.30;;;;;;4377174;32;20073;-38
2021/07/07 10:30:05;;;;;;;0.80;0.55;;;32.90;24.30;;;;;;4388653;32;19979;-37
2021/07/07 10:32:32;;;;;;;0.60;0.50;;;33.00;24.40;;;;;;4403116;32;20103;-37
2021/07/07 10:35:12;;;;;;;2.80;0.40;;;33.10;24.00;;;;;;4402909;32;20082;-38
2021/07/07 10:37:39;;;;;;;1.25;0.50;;;33.10;24.00;;;;;;4402718;32;20066;-38
2021/07/07 10:40:30;;;;;;;1.55;0.43;;;33.10;24.10;;;;;;4403105;32;20064;-37
2021/07/07 10:42:57;;;;;;;1.30;0.37;;;33.10;24.20;;;;;;4402979;32;20554;-37
2021/07/07 10:45:40;;;;;;;0.30;0.30;;;33.30;24.00;;;;;;4388485;32;20528;-38
2021/07/07 10:48:31;;;;;;;1.42;0.32;;;33.40;24.10;;;;;;4402900;32;20099;-36
2021/07/07 10:51:12;;;;;;;1.50;0.40;;;33.30;23.80;;;;;;4403228;32;20058;-38
2021/07/07 10:53:38;;;;;;;2.80;0.30;;;33.30;23.80;;;;;;4402867;32;20065;-38
2021/07/07 10:56:06;;;;;;;3.35;0.88;;;33.10;23.30;;;;;;4402974;32;20081;-38
2021/07/07 10:58:38;;;;;;;0.80;0.40;;;33.00;23.40;;;;;;4381813;32;20602;-38
2021/07/07 11:01:30;;;;;;;2.05;0.50;;;32.90;23.40;;;;;;4391411;32;20065;-38
2021/07/07 11:04:01;;;;;;;0.47;0.25;;;33.00;23.70;;;;;;4390238;32;20122;-37
2021/07/07 11:06:41;;;;;;;0.52;0.30;;;33.30;23.80;;;;;;4376865;32;20072;-38
2021/07/07 11:09:16;;;;;;;1.75;0.65;;;33.20;23.00;;;;;;4390623;32;20571;-38
2021/07/07 11:11:47;;;;;;;0.90;0.30;;;33.30;23.30;;;;;;4390869;32;20072;-38
2021/07/07 11:14:22;;;;;;;0.85;0.40;;;33.10;22.80;;;;;;4376479;32;20077;-38
2021/07/07 11:16:54;;;;;;;1.33;0.50;;;33.10;23.00;;;;;;4390916;32;20089;-37
2021/07/07 11:19:43;;;;;;;1.73;0.88;;;33.10;23.00;;;;;;4391080;32;20061;-37
2021/07/07 11:22:10;;;;;;;0.93;0.45;;;33.10;23.40;;;;;;4364461;32;20065;-36
2021/07/07 11:24:37;;;;;;;1.12;0.30;;;33.10;23.10;;;;;;4390288;32;20065;-36
2021/07/07 11:27:05;;;;;;;1.00;0.37;;;33.10;22.80;;;;;;4390038;32;20061;-37
2021/07/07 11:29:32;;;;;;;0.65;0.60;;;33.20;22.90;;;;;;4390665;32;20073;-37
2021/07/07 11:31:59;;;;;;;3.30;0.40;;;33.40;22.80;;;;;;4376367;32;20069;-36
2021/07/07 11:34:25;;;;;;;0.73;0.20;;;33.50;23.00;;;;;;4390402;32;20081;-36
2021/07/07 11:36:52;;;;;;;1.92;0.80;;;33.40;22.70;;;;;;4390837;32;20058;-37
2021/07/07 11:39:21;;;;;;;2.15;0.30;;;33.50;23.10;;;;;;4376652;32;20593;-38
2021/07/07 11:42:07;;;;;;;0.20;0.20;;;33.60;22.90;;;;;;4390441;32;20054;-37
2021/07/07 11:44:41;;;;;;;1.35;0.30;;;33.70;22.80;;;;;;4376070;32;20136;-38
2021/07/07 11:47:09;;;;;;;2.65;0.43;;;33.70;22.80;;;;;;4390502;32;20058;-37
2021/07/07 11:49:35;;;;;;;0.40;0.30;;;33.70;22.80;;;;;;4390165;32;20093;-39
2021/07/07 11:52:05;;;;;;;1.95;0.60;;;33.70;22.00;;;;;;4390177;32;20145;-37
2021/07/07 11:54:47;;;;;;;0.55;0.50;;;33.50;21.50;;;;;;4390178;32;20137;-38
2021/07/07 11:57:15;;;;;;;1.92;0.40;;;33.50;22.20;;;;;;4391942;32;20085;-37
2021/07/07 11:59:41;;;;;;;1.55;1.05;;;33.50;22.30;;;;;;4405455;32;20569;-36
2021/07/07 12:02:08;;;;;;;0.32;0.20;;;33.40;22.40;;;;;;4390892;32;20165;-36
2021/07/07 12:04:34;;;;;;;1.08;0.40;;;33.40;22.60;;;;;;4391014;32;20578;-37
2021/07/07 12:07:00;;;;;;;0.65;0.30;;;33.10;22.60;;;;;;4390707;32;20237;-37
2021/07/07 12:09:28;;;;;;;1.10;0.50;;;33.10;22.70;;;;;;4404785;32;20058;-37
2021/07/07 12:11:56;;;;;;;0.82;0.30;;;33.00;22.50;;;;;;4391486;32;20092;-37
2021/07/07 12:14:25;;;;;;;1.75;0.40;;;32.90;22.70;;;;;;4404702;32;20068;-36
2021/07/07 12:16:53;;;;;;;1.10;0.60;;;32.90;22.30;;;;;;4404966;32;20060;-38
2021/07/07 12:19:19;;;;;;;2.55;0.40;;;33.00;22.30;;;;;;4391237;32;20578;-37
2021/07/07 12:22:03;;;;;;;3.45;0.70;;;32.90;22.00;;;;;;4404803;32;20540;-37
2021/07/07 12:24:36;;;;;;;0.60;0.30;;;32.80;22.30;;;;;;4390700;32;20149;-37
2021/07/07 12:27:06;;;;;;;0.60;0.30;;;32.90;22.50;;;;;;4404645;32;20062;-38
2021/07/07 12:29:37;;;;;;;0.90;0.47;;;32.80;22.50;;;;;;4405024;32;20076;-37
2021/07/07 12:32:27;;;;;;;0.50;0.30;;;33.00;22.60;;;;;;4404653;32;20065;-38
2021/07/07 12:34:57;;;;;;;1.05;0.45;;;33.10;22.30;;;;;;4359863;32;20062;-37
2021/07/07 12:37:24;;;;;;;0.40;0.25;;;33.10;22.10;;;;;;4359758;32;20090;-38
2021/07/07 12:39:56;;;;;;;1.35;0.30;;;32.90;21.90;;;;;;4359030;32;20094;-37
2021/07/07 12:42:30;;;;;;;0.50;0.40;;;32.90;21.80;;;;;;4371510;32;20657;-37
2021/07/07 12:45:11;;;;;;;2.17;0.20;;;32.90;21.90;;;;;;4359665;32;20085;-37
2021/07/07 12:47:38;;;;;;;1.92;0.70;;;33.00;22.00;;;;;;4359009;32;20645;-36
2021/07/07 12:50:19;;;;;;;1.10;0.30;;;33.00;21.70;;;;;;4329524;33;20086;-36
2021/07/07 12:52:46;;;;;;;2.05;0.47;;;33.00;21.60;;;;;;4342154;33;20066;-38
2021/07/07 12:55:22;;;;;;;0.90;0.30;;;33.10;21.50;;;;;;4341967;33;20065;-38